sensor_id;sensor_type;location;lat;lon;timestamp;pressure;altitude;pressure_sealevel;temperature;humidity
63281;BME280;49406;51.044;3.766;2023-04-15T00:02:17;100771.48;;;9.99;96.76
63281;BME280;49406;51.044;3.766;2023-04-15T00:04:50;100768.34;;;10.01;96.28
63281;BME280;49406;51.044;3.766;2023-04-15T00:07:22;100774.20;;;10.11;95.82
63281;BME280;49406;51.044;3.766;2023-04-15T00:09:55;100775.61;;;10.11;95.61
63281;BME280;49406;51.044;3.766;2023-04-15T00:12:28;100778.41;;;10.12;96.14
63281;BME280;49406;51.044;3.766;2023-04-15T00:15:01;100772.98;;;10.11;96.62
63281;BME280;49406;51.044;3.766;2023-04-15T00:17:34;100775.59;;;10.09;95.88
63281;BME280;49406;51.044;3.766;2023-04-15T00:20:08;100775.00;;;10.04;95.19
63281;BME280;49406;51.044;3.766;2023-04-15T00:22:41;100774.30;;;10.03;94.91
63281;BME280;49406;51.044;3.766;2023-04-15T00:25:13;100774.29;;;10.01;95.23
63281;BME280;49406;51.044;3.766;2023-04-15T00:27:46;100772.69;;;9.98;96.64
63281;BME280;49406;51.044;3.766;2023-04-15T00:30:19;100769.69;;;9.93;98.48
63281;BME280;49406;51.044;3.766;2023-04-15T00:32:52;100772.60;;;9.90;99.06
63281;BME280;49406;51.044;3.766;2023-04-15T00:35:24;100769.48;;;9.92;99.61
63281;BME280;49406;51.044;3.766;2023-04-15T00:37:57;100772.87;;;9.99;99.91
63281;BME280;49406;51.044;3.766;2023-04-15T00:40:30;100773.36;;;9.94;100.00
63281;BME280;49406;51.044;3.766;2023-04-15T00:43:03;100770.48;;;9.88;100.00
63281;BME280;49406;51.044;3.766;2023-04-15T00:45:36;100773.44;;;9.86;100.00
63281;BME280;49406;51.044;3.766;2023-04-15T00:48:09;100773.09;;;9.86;100.00
63281;BME280;49406;51.044;3.766;2023-04-15T00:50:42;100769.56;;;9.82;100.00
63281;BME280;49406;51.044;3.766;2023-04-15T00:53:14;100772.88;;;9.81;100.00
63281;BME280;49406;51.044;3.766;2023-04-15T00:55:47;100773.56;;;9.81;100.00
63281;BME280;49406;51.044;3.766;2023-04-15T00:58:20;100774.14;;;9.86;100.00
63281;BME280;49406;51.044;3.766;2023-04-15T01:00:52;100767.85;;;9.86;100.00
63281;BME280;49406;51.044;3.766;2023-04-15T01:03:25;100771.35;;;9.87;100.00
63281;BME280;49406;51.044;3.766;2023-04-15T01:05:58;100772.02;;;9.83;100.00
63281;BME280;49406;51.044;3.766;2023-04-15T01:08:31;100771.80;;;9.79;100.00
63281;BME280;49406;51.044;3.766;2023-04-15T01:11:04;100770.89;;;9.74;100.00
63281;BME280;49406;51.044;3.766;2023-04-15T01:13:37;100775.70;;;9.70;100.00
63281;BME280;49406;51.044;3.766;2023-04-15T01:16:10;100772.37;;;9.67;100.00
63281;BME280;49406;51.044;3.766;2023-04-15T01:18:44;100772.54;;;9.66;100.00
63281;BME280;49406;51.044;3.766;2023-04-15T01:21:17;100769.96;;;9.71;100.00
63281;BME280;49406;51.044;3.766;2023-04-15T01:23:50;100767.69;;;9.70;100.00
63281;BME280;49406;51.044;3.766;2023-04-15T01:26:24;100770.63;;;9.67;100.00
63281;BME280;49406;51.044;3.766;2023-04-15T01:28:57;100774.56;;;9.59;100.00
63281;BME280;49406;51.044;3.766;2023-04-15T01:31:30;100777.12;;;9.55;100.00
63281;BME280;49406;51.044;3.766;2023-04-15T01:34:02;100779.35;;;9.51;100.00
63281;BME280;49406;51.044;3.766;2023-04-15T01:36:35;100779.73;;;9.55;100.00
63281;BME280;49406;51.044;3.766;2023-04-15T01:39:08;100780.26;;;9.54;100.00
63281;BME280;49406;51.044;3.766;2023-04-15T01:41:40;100776.20;;;9.51;100.00
63281;BME280;49406;51.044;3.766;2023-04-15T01:44:13;100777.91;;;9.47;100.00
63281;BME280;49406;51.044;3.766;2023-04-15T01:46:46;100775.83;;;9.33;100.00
63281;BME280;49406;51.044;3.766;2023-04-15T01:49:19;100779.45;;;9.30;100.00
63281;BME280;49406;51.044;3.766;2023-04-15T01:51:51;100780.27;;;9.26;100.00
63281;BME280;49406;51.044;3.766;2023-04-15T01:54:25;100787.12;;;9.16;100.00
63281;BME280;49406;51.044;3.766;2023-04-15T01:56:58;100786.89;;;9.11;100.00
63281;BME280;49406;51.044;3.766;2023-04-15T01:59:30;100784.85;;;9.16;100.00
63281;BME280;49406;51.044;3.766;2023-04-15T02:02:03;100782.10;;;9.19;100.00
63281;BME280;49406;51.044;3.766;2023-04-15T02:04:36;100782.44;;;9.18;100.00
63281;BME280;49406;51.044;3.766;2023-04-15T02:07:08;100781.56;;;9.18;100.00
63281;BME280;49406;51.044;3.766;2023-04-15T02:09:41;100778.44;;;9.19;100.00
63281;BME280;49406;51.044;3.766;2023-04-15T02:12:14;100779.64;;;9.17;100.00
63281;BME280;49406;51.044;3.766;2023-04-15T02:14:46;100778.37;;;9.13;100.00
63281;BME280;49406;51.044;3.766;2023-04-15T02:17:18;100783.92;;;9.11;100.00
63281;BME280;49406;51.044;3.766;2023-04-15T02:19:51;100780.45;;;9.13;100.00
63281;BME280;49406;51.044;3.766;2023-04-15T02:22:24;100783.66;;;9.19;100.00
63281;BME280;49406;51.044;3.766;2023-04-15T02:24:56;100778.77;;;9.17;100.00
63281;BME280;49406;51.044;3.766;2023-04-15T02:27:29;100781.20;;;9.17;100.00
63281;BME280;49406;51.044;3.766;2023-04-15T02:30:02;100783.98;;;9.16;100.00
63281;BME280;49406;51.044;3.766;2023-04-15T02:32:35;100782.69;;;9.09;100.00
63281;BME280;49406;51.044;3.766;2023-04-15T02:35:09;100782.59;;;9.04;100.00
63281;BME280;49406;51.044;3.766;2023-04-15T02:37:42;100784.13;;;9.01;100.00
63281;BME280;49406;51.044;3.766;2023-04-15T02:40:16;100783.17;;;9.07;100.00
63281;BME280;49406;51.044;3.766;2023-04-15T02:42:49;100785.75;;;9.06;100.00
63281;BME280;49406;51.044;3.766;2023-04-15T02:45:22;100789.57;;;9.04;100.00
63281;BME280;49406;51.044;3.766;2023-04-15T02:47:58;100797.23;;;9.04;100.00
63281;BME280;49406;51.044;3.766;2023-04-15T02:50:34;100799.48;;;9.03;100.00
63281;BME280;49406;51.044;3.766;2023-04-15T02:53:08;100798.04;;;8.98;100.00
63281;BME280;49406;51.044;3.766;2023-04-15T02:55:41;100800.45;;;8.95;100.00
63281;BME280;49406;51.044;3.766;2023-04-15T02:58:13;100804.88;;;9.01;100.00
63281;BME280;49406;51.044;3.766;2023-04-15T03:00:46;100801.44;;;9.05;100.00
63281;BME280;49406;51.044;3.766;2023-04-15T03:03:21;100806.89;;;9.06;100.00
63281;BME280;49406;51.044;3.766;2023-04-15T03:05:54;100812.13;;;9.07;100.00
63281;BME280;49406;51.044;3.766;2023-04-15T03:08:26;100813.20;;;9.09;100.00
63281;BME280;49406;51.044;3.766;2023-04-15T03:10:59;100813.50;;;9.06;100.00
63281;BME280;49406;51.044;3.766;2023-04-15T03:13:33;100813.63;;;9.03;100.00
63281;BME280;49406;51.044;3.766;2023-04-15T03:16:07;100811.35;;;9.02;100.00
63281;BME280;49406;51.044;3.766;2023-04-15T03:18:39;100809.03;;;9.11;100.00
63281;BME280;49406;51.044;3.766;2023-04-15T03:21:12;100813.43;;;9.13;100.00
63281;BME280;49406;51.044;3.766;2023-04-15T03:23:45;100817.45;;;9.14;100.00
63281;BME280;49406;51.044;3.766;2023-04-15T03:26:28;100820.08;;;9.16;100.00
63281;BME280;49406;51.044;3.766;2023-04-15T03:29:02;100823.78;;;9.06;100.00
63281;BME280;49406;51.044;3.766;2023-04-15T03:31:34;100825.08;;;8.98;100.00
63281;BME280;49406;51.044;3.766;2023-04-15T03:34:07;100829.80;;;9.01;100.00
63281;BME280;49406;51.044;3.766;2023-04-15T03:36:39;100833.41;;;9.08;100.00
63281;BME280;49406;51.044;3.766;2023-04-15T03:39:12;100837.66;;;9.12;100.00
63281;BME280;49406;51.044;3.766;2023-04-15T03:41:44;100836.08;;;9.11;100.00
63281;BME280;49406;51.044;3.766;2023-04-15T03:44:17;100838.70;;;9.12;100.00
63281;BME280;49406;51.044;3.766;2023-04-15T03:46:50;100844.29;;;9.12;100.00
63281;BME280;49406;51.044;3.766;2023-04-15T03:49:22;100847.60;;;9.12;100.00
63281;BME280;49406;51.044;3.766;2023-04-15T03:51:55;100854.39;;;9.11;100.00
63281;BME280;49406;51.044;3.766;2023-04-15T03:54:28;100858.65;;;9.05;100.00
63281;BME280;49406;51.044;3.766;2023-04-15T03:57:00;100865.84;;;8.96;100.00
63281;BME280;49406;51.044;3.766;2023-04-15T03:59:33;100871.89;;;8.91;100.00
63281;BME280;49406;51.044;3.766;2023-04-15T04:02:05;100872.96;;;8.95;100.00
63281;BME280;49406;51.044;3.766;2023-04-15T04:04:38;100879.50;;;9.00;100.00
63281;BME280;49406;51.044;3.766;2023-04-15T04:07:15;100885.21;;;8.97;100.00
63281;BME280;49406;51.044;3.766;2023-04-15T04:09:48;100888.84;;;8.95;100.00
63281;BME280;49406;51.044;3.766;2023-04-15T04:12:21;100891.62;;;8.94;100.00
63281;BME280;49406;51.044;3.766;2023-04-15T04:14:53;100898.95;;;8.94;100.00
63281;BME280;49406;51.044;3.766;2023-04-15T04:17:26;100899.36;;;8.89;100.00
63281;BME280;49406;51.044;3.766;2023-04-15T04:19:58;100898.42;;;8.84;100.00
63281;BME280;49406;51.044;3.766;2023-04-15T04:22:31;100905.04;;;8.83;100.00
63281;BME280;49406;51.044;3.766;2023-04-15T04:25:04;100911.36;;;8.87;100.00
63281;BME280;49406;51.044;3.766;2023-04-15T04:27:37;100910.11;;;8.85;100.00
63281;BME280;49406;51.044;3.766;2023-04-15T04:30:11;100915.49;;;8.83;100.00
63281;BME280;49406;51.044;3.766;2023-04-15T04:32:43;100914.97;;;8.83;100.00
63281;BME280;49406;51.044;3.766;2023-04-15T04:35:16;100918.79;;;8.81;100.00
63281;BME280;49406;51.044;3.766;2023-04-15T04:37:49;100919.39;;;8.75;100.00
63281;BME280;49406;51.044;3.766;2023-04-15T04:40:23;100918.48;;;8.73;100.00
63281;BME280;49406;51.044;3.766;2023-04-15T04:42:55;100931.20;;;8.73;100.00
63281;BME280;49406;51.044;3.766;2023-04-15T04:45:28;100932.17;;;8.79;100.00
63281;BME280;49406;51.044;3.766;2023-04-15T04:48:01;100940.08;;;8.83;100.00
63281;BME280;49406;51.044;3.766;2023-04-15T04:50:33;100942.29;;;8.80;100.00
63281;BME280;49406;51.044;3.766;2023-04-15T04:53:06;100945.77;;;8.79;100.00
63281;BME280;49406;51.044;3.766;2023-04-15T04:55:38;100946.80;;;8.79;100.00
63281;BME280;49406;51.044;3.766;2023-04-15T04:58:11;100945.60;;;8.80;100.00
63281;BME280;49406;51.044;3.766;2023-04-15T05:00:44;100942.50;;;8.82;100.00
63281;BME280;49406;51.044;3.766;2023-04-15T05:03:16;100943.36;;;8.82;100.00
63281;BME280;49406;51.044;3.766;2023-04-15T05:05:49;100945.82;;;8.82;100.00
63281;BME280;49406;51.044;3.766;2023-04-15T05:08:22;100950.71;;;8.83;100.00
63281;BME280;49406;51.044;3.766;2023-04-15T05:10:54;100955.05;;;8.83;100.00
63281;BME280;49406;51.044;3.766;2023-04-15T05:13:27;100958.79;;;8.87;100.00
63281;BME280;49406;51.044;3.766;2023-04-15T05:16:01;100959.83;;;8.96;100.00
63281;BME280;49406;51.044;3.766;2023-04-15T05:18:33;100961.25;;;8.98;100.00
63281;BME280;49406;51.044;3.766;2023-04-15T05:21:06;100963.39;;;9.01;100.00
63281;BME280;49406;51.044;3.766;2023-04-15T05:23:38;100966.72;;;9.02;100.00
63281;BME280;49406;51.044;3.766;2023-04-15T05:26:11;100967.52;;;8.97;100.00
63281;BME280;49406;51.044;3.766;2023-04-15T05:28:44;100970.08;;;8.94;100.00
63281;BME280;49406;51.044;3.766;2023-04-15T05:31:17;100976.52;;;8.93;100.00
63281;BME280;49406;51.044;3.766;2023-04-15T05:33:49;100988.05;;;8.94;100.00
63281;BME280;49406;51.044;3.766;2023-04-15T05:36:22;100992.49;;;8.99;100.00
63281;BME280;49406;51.044;3.766;2023-04-15T05:38:54;100994.91;;;8.98;100.00
63281;BME280;49406;51.044;3.766;2023-04-15T05:41:27;100994.19;;;8.97;100.00
63281;BME280;49406;51.044;3.766;2023-04-15T05:43:59;100998.58;;;8.98;100.00
63281;BME280;49406;51.044;3.766;2023-04-15T05:46:32;101003.58;;;8.95;100.00
63281;BME280;49406;51.044;3.766;2023-04-15T05:49:04;101008.55;;;8.91;100.00
63281;BME280;49406;51.044;3.766;2023-04-15T05:51:37;101012.22;;;8.91;100.00
63281;BME280;49406;51.044;3.766;2023-04-15T05:54:09;101018.84;;;9.01;100.00
63281;BME280;49406;51.044;3.766;2023-04-15T05:56:42;101022.89;;;9.03;100.00
63281;BME280;49406;51.044;3.766;2023-04-15T05:59:14;101026.78;;;9.06;100.00
63281;BME280;49406;51.044;3.766;2023-04-15T06:01:47;101031.55;;;9.08;100.00
63281;BME280;49406;51.044;3.766;2023-04-15T06:04:20;101040.17;;;9.04;100.00
63281;BME280;49406;51.044;3.766;2023-04-15T06:06:53;101041.39;;;9.04;100.00
63281;BME280;49406;51.044;3.766;2023-04-15T06:09:26;101045.66;;;9.09;100.00
63281;BME280;49406;51.044;3.766;2023-04-15T06:11:59;101051.63;;;9.21;100.00
63281;BME280;49406;51.044;3.766;2023-04-15T06:14:33;101050.55;;;9.28;100.00
63281;BME280;49406;51.044;3.766;2023-04-15T06:17:05;101048.92;;;9.37;100.00
63281;BME280;49406;51.044;3.766;2023-04-15T06:19:38;101054.60;;;9.41;100.00
63281;BME280;49406;51.044;3.766;2023-04-15T06:22:10;101043.77;;;9.41;100.00
63281;BME280;49406;51.044;3.766;2023-04-15T06:24:43;101056.50;;;9.52;100.00
63281;BME280;49406;51.044;3.766;2023-04-15T06:27:15;101069.85;;;9.68;100.00
63281;BME280;49406;51.044;3.766;2023-04-15T06:29:48;101073.20;;;9.94;100.00
63281;BME280;49406;51.044;3.766;2023-04-15T06:32:20;101078.42;;;10.17;100.00
63281;BME280;49406;51.044;3.766;2023-04-15T06:34:53;101087.20;;;10.31;100.00
63281;BME280;49406;51.044;3.766;2023-04-15T06:37:25;101086.20;;;10.35;100.00
63281;BME280;49406;51.044;3.766;2023-04-15T06:39:58;101087.64;;;10.39;100.00
63281;BME280;49406;51.044;3.766;2023-04-15T06:42:31;101092.30;;;10.45;100.00
63281;BME280;49406;51.044;3.766;2023-04-15T06:45:05;101097.33;;;10.58;100.00
63281;BME280;49406;51.044;3.766;2023-04-15T06:47:38;101097.88;;;10.75;100.00
63281;BME280;49406;51.044;3.766;2023-04-15T06:50:10;101095.90;;;10.86;100.00
63281;BME280;49406;51.044;3.766;2023-04-15T06:52:43;101093.05;;;10.96;100.00
63281;BME280;49406;51.044;3.766;2023-04-15T06:55:15;101098.86;;;11.00;100.00
63281;BME280;49406;51.044;3.766;2023-04-15T06:57:48;101093.85;;;11.07;100.00
63281;BME280;49406;51.044;3.766;2023-04-15T07:00:21;101096.02;;;11.12;100.00
63281;BME280;49406;51.044;3.766;2023-04-15T07:02:53;101096.33;;;11.27;100.00
63281;BME280;49406;51.044;3.766;2023-04-15T07:05:26;101105.76;;;11.44;100.00
63281;BME280;49406;51.044;3.766;2023-04-15T07:07:59;101109.71;;;11.57;100.00
63281;BME280;49406;51.044;3.766;2023-04-15T07:10:31;101115.75;;;11.65;100.00
63281;BME280;49406;51.044;3.766;2023-04-15T07:13:04;101117.67;;;11.65;100.00
63281;BME280;49406;51.044;3.766;2023-04-15T07:15:38;101119.81;;;11.70;100.00
63281;BME280;49406;51.044;3.766;2023-04-15T07:18:10;101124.90;;;11.73;100.00
63281;BME280;49406;51.044;3.766;2023-04-15T07:20:43;101131.96;;;11.77;100.00
63281;BME280;49406;51.044;3.766;2023-04-15T07:23:15;101139.06;;;11.86;100.00
63281;BME280;49406;51.044;3.766;2023-04-15T07:25:48;101147.55;;;11.96;100.00
63281;BME280;49406;51.044;3.766;2023-04-15T07:28:21;101159.83;;;11.98;100.00
63281;BME280;49406;51.044;3.766;2023-04-15T07:30:54;101163.88;;;12.00;100.00
63281;BME280;49406;51.044;3.766;2023-04-15T07:33:27;101174.37;;;11.97;100.00
63281;BME280;49406;51.044;3.766;2023-04-15T07:36:00;101186.60;;;11.92;100.00
63281;BME280;49406;51.044;3.766;2023-04-15T07:38:33;101189.33;;;11.84;100.00
63281;BME280;49406;51.044;3.766;2023-04-15T07:41:06;101193.38;;;11.87;100.00
63281;BME280;49406;51.044;3.766;2023-04-15T07:43:38;101198.77;;;11.84;100.00
63281;BME280;49406;51.044;3.766;2023-04-15T07:46:11;101201.17;;;11.78;100.00
63281;BME280;49406;51.044;3.766;2023-04-15T07:48:43;101211.16;;;11.78;100.00
63281;BME280;49406;51.044;3.766;2023-04-15T07:51:16;101214.10;;;11.77;100.00
63281;BME280;49406;51.044;3.766;2023-04-15T07:53:50;101216.71;;;11.91;100.00
63281;BME280;49406;51.044;3.766;2023-04-15T07:56:22;101227.66;;;12.00;100.00
63281;BME280;49406;51.044;3.766;2023-04-15T07:58:55;101228.15;;;11.95;99.41
63281;BME280;49406;51.044;3.766;2023-04-15T08:01:27;101237.66;;;12.01;100.00
63281;BME280;49406;51.044;3.766;2023-04-15T08:04:00;101244.39;;;12.10;99.99
63281;BME280;49406;51.044;3.766;2023-04-15T08:06:32;101246.45;;;12.27;99.94
63281;BME280;49406;51.044;3.766;2023-04-15T08:09:06;101250.83;;;12.50;99.87
63281;BME280;49406;51.044;3.766;2023-04-15T08:11:39;101260.91;;;12.65;98.17
63281;BME280;49406;51.044;3.766;2023-04-15T08:14:11;101265.05;;;12.79;97.62
63281;BME280;49406;51.044;3.766;2023-04-15T08:16:44;101268.98;;;12.93;98.63
63281;BME280;49406;51.044;3.766;2023-04-15T08:19:16;101271.14;;;13.05;96.71
63281;BME280;49406;51.044;3.766;2023-04-15T08:21:49;101274.95;;;13.24;96.10
63281;BME280;49406;51.044;3.766;2023-04-15T08:24:23;101274.32;;;13.43;94.76
63281;BME280;49406;51.044;3.766;2023-04-15T08:26:57;101279.86;;;13.78;94.31
63281;BME280;49406;51.044;3.766;2023-04-15T08:29:30;101282.73;;;14.10;93.47
63281;BME280;49406;51.044;3.766;2023-04-15T08:32:04;101287.13;;;14.26;86.97
63281;BME280;49406;51.044;3.766;2023-04-15T08:34:37;101284.85;;;14.43;84.22
63281;BME280;49406;51.044;3.766;2023-04-15T08:37:09;101279.75;;;14.56;85.41
63281;BME280;49406;51.044;3.766;2023-04-15T08:39:42;101286.42;;;14.66;84.75
63281;BME280;49406;51.044;3.766;2023-04-15T08:42:18;101293.27;;;14.70;84.24
63281;BME280;49406;51.044;3.766;2023-04-15T08:44:54;101298.20;;;14.80;83.06
63281;BME280;49406;51.044;3.766;2023-04-15T08:47:29;101300.98;;;14.91;83.06
63281;BME280;49406;51.044;3.766;2023-04-15T08:50:04;101305.20;;;14.99;82.42
63281;BME280;49406;51.044;3.766;2023-04-15T08:52:37;101314.67;;;15.07;80.75
63281;BME280;49406;51.044;3.766;2023-04-15T08:55:11;101319.95;;;15.07;77.61
63281;BME280;49406;51.044;3.766;2023-04-15T08:57:45;101322.41;;;15.12;80.44
63281;BME280;49406;51.044;3.766;2023-04-15T09:00:18;101331.67;;;15.33;82.54
63281;BME280;49406;51.044;3.766;2023-04-15T09:02:51;101335.17;;;15.41;76.34
63281;BME280;49406;51.044;3.766;2023-04-15T09:05:23;101342.60;;;15.34;74.36
63281;BME280;49406;51.044;3.766;2023-04-15T09:07:56;101350.85;;;15.42;77.58
63281;BME280;49406;51.044;3.766;2023-04-15T09:10:29;101353.27;;;15.62;76.80
63281;BME280;49406;51.044;3.766;2023-04-15T09:13:02;101354.67;;;15.68;73.88
63281;BME280;49406;51.044;3.766;2023-04-15T09:15:37;101360.84;;;15.67;75.45
63281;BME280;49406;51.044;3.766;2023-04-15T09:18:11;101360.85;;;15.62;73.49
63281;BME280;49406;51.044;3.766;2023-04-15T09:20:43;101373.53;;;15.56;73.01
63281;BME280;49406;51.044;3.766;2023-04-15T09:23:16;101378.67;;;15.49;73.23
63281;BME280;49406;51.044;3.766;2023-04-15T09:25:49;101386.44;;;15.40;73.27
63281;BME280;49406;51.044;3.766;2023-04-15T09:28:25;101389.62;;;15.41;76.04
63281;BME280;49406;51.044;3.766;2023-04-15T09:30:58;101396.64;;;15.53;74.84
63281;BME280;49406;51.044;3.766;2023-04-15T09:33:31;101402.42;;;15.55;74.66
63281;BME280;49406;51.044;3.766;2023-04-15T09:36:04;101402.80;;;15.51;73.69
63281;BME280;49406;51.044;3.766;2023-04-15T09:38:54;101407.54;;;15.59;76.19
63281;BME280;49406;51.044;3.766;2023-04-15T09:41:27;101415.63;;;15.69;74.69
63281;BME280;49406;51.044;3.766;2023-04-15T09:44:00;101417.77;;;15.69;75.06
63281;BME280;49406;51.044;3.766;2023-04-15T09:46:42;101421.08;;;15.74;74.90
63281;BME280;49406;51.044;3.766;2023-04-15T09:49:15;101429.84;;;15.88;73.74
63281;BME280;49406;51.044;3.766;2023-04-15T09:51:48;101427.87;;;15.96;73.49
63281;BME280;49406;51.044;3.766;2023-04-15T09:54:21;101432.23;;;16.05;73.17
63281;BME280;49406;51.044;3.766;2023-04-15T09:56:53;101437.56;;;15.97;71.38
63281;BME280;49406;51.044;3.766;2023-04-15T09:59:26;101447.02;;;16.10;72.99
63281;BME280;49406;51.044;3.766;2023-04-15T10:01:59;101450.19;;;16.14;73.85
63281;BME280;49406;51.044;3.766;2023-04-15T10:04:34;101451.67;;;16.32;72.87
63281;BME280;49406;51.044;3.766;2023-04-15T10:07:08;101459.91;;;16.39;70.57
63281;BME280;49406;51.044;3.766;2023-04-15T10:09:41;101464.14;;;16.41;70.93
63281;BME280;49406;51.044;3.766;2023-04-15T10:12:17;101460.59;;;16.46;70.74
63281;BME280;49406;51.044;3.766;2023-04-15T10:14:55;101468.64;;;16.56;70.75
63281;BME280;49406;51.044;3.766;2023-04-15T10:17:31;101474.64;;;16.87;71.01
63281;BME280;49406;51.044;3.766;2023-04-15T10:20:09;101471.13;;;17.25;70.53
63281;BME280;49406;51.044;3.766;2023-04-15T10:22:43;101473.06;;;17.61;69.62
63281;BME280;49406;51.044;3.766;2023-04-15T10:25:16;101481.33;;;17.84;66.46
63281;BME280;49406;51.044;3.766;2023-04-15T10:27:49;101473.27;;;17.76;64.21
63281;BME280;49406;51.044;3.766;2023-04-15T10:30:23;101471.45;;;17.64;61.82
63281;BME280;49406;51.044;3.766;2023-04-15T10:32:56;101471.79;;;17.65;61.72
63281;BME280;49406;51.044;3.766;2023-04-15T10:35:31;101479.44;;;17.42;62.48
63281;BME280;49406;51.044;3.766;2023-04-15T10:38:36;101477.95;;;17.12;62.44
63281;BME280;49406;51.044;3.766;2023-04-15T10:41:17;101483.57;;;17.18;60.84
63281;BME280;49406;51.044;3.766;2023-04-15T10:43:52;101483.65;;;17.27;58.96
63281;BME280;49406;51.044;3.766;2023-04-15T10:46:35;101488.19;;;17.51;56.35
63281;BME280;49406;51.044;3.766;2023-04-15T10:49:09;101493.32;;;17.70;53.20
63281;BME280;49406;51.044;3.766;2023-04-15T10:51:44;101498.78;;;17.88;51.20
63281;BME280;49406;51.044;3.766;2023-04-15T10:54:31;101503.42;;;18.01;50.06
63281;BME280;49406;51.044;3.766;2023-04-15T10:57:15;101503.45;;;17.98;49.37
63281;BME280;49406;51.044;3.766;2023-04-15T11:00:09;101503.02;;;17.91;49.35
63281;BME280;49406;51.044;3.766;2023-04-15T11:02:47;101507.96;;;18.05;47.05
63281;BME280;49406;51.044;3.766;2023-04-15T11:05:21;101512.64;;;18.28;47.21
63281;BME280;49406;51.044;3.766;2023-04-15T11:07:55;101522.58;;;18.40;47.03
63281;BME280;49406;51.044;3.766;2023-04-15T11:10:51;101517.41;;;18.54;46.52
63281;BME280;49406;51.044;3.766;2023-04-15T11:13:28;101526.05;;;18.58;44.64
63281;BME280;49406;51.044;3.766;2023-04-15T11:16:02;101534.05;;;18.41;43.46
63281;BME280;49406;51.044;3.766;2023-04-15T11:18:35;101536.06;;;18.49;44.60
63281;BME280;49406;51.044;3.766;2023-04-15T11:21:08;101540.89;;;18.47;44.34
63281;BME280;49406;51.044;3.766;2023-04-15T11:23:42;101546.08;;;18.29;43.75
63281;BME280;49406;51.044;3.766;2023-04-15T11:26:17;101550.67;;;18.29;45.42
63281;BME280;49406;51.044;3.766;2023-04-15T11:28:50;101556.11;;;18.19;45.35
63281;BME280;49406;51.044;3.766;2023-04-15T11:31:22;101557.61;;;18.26;45.24
63281;BME280;49406;51.044;3.766;2023-04-15T11:34:01;101564.46;;;18.31;44.27
63281;BME280;49406;51.044;3.766;2023-04-15T11:36:34;101570.52;;;18.26;44.32
63281;BME280;49406;51.044;3.766;2023-04-15T11:39:07;101567.17;;;18.25;43.61
63281;BME280;49406;51.044;3.766;2023-04-15T11:41:41;101571.59;;;18.26;42.77
63281;BME280;49406;51.044;3.766;2023-04-15T11:44:17;101587.64;;;18.18;41.45
63281;BME280;49406;51.044;3.766;2023-04-15T11:46:49;101584.39;;;18.21;42.85
63281;BME280;49406;51.044;3.766;2023-04-15T11:49:29;101593.48;;;18.46;43.39
63281;BME280;49406;51.044;3.766;2023-04-15T11:52:10;101598.45;;;18.45;39.36
63281;BME280;49406;51.044;3.766;2023-04-15T11:54:43;101596.58;;;18.24;39.29
63281;BME280;49406;51.044;3.766;2023-04-15T11:57:15;101617.08;;;18.10;38.87
63281;BME280;49406;51.044;3.766;2023-04-15T11:59:48;101602.02;;;17.94;39.28
63281;BME280;49406;51.044;3.766;2023-04-15T12:02:20;101601.73;;;17.89;40.68
63281;BME280;49406;51.044;3.766;2023-04-15T12:05:07;101615.98;;;17.78;39.09
63281;BME280;49406;51.044;3.766;2023-04-15T12:07:58;101616.02;;;17.74;39.70
63281;BME280;49406;51.044;3.766;2023-04-15T12:10:32;101616.15;;;17.79;40.28
63281;BME280;49406;51.044;3.766;2023-04-15T12:13:06;101620.55;;;17.81;39.17
63281;BME280;49406;51.044;3.766;2023-04-15T12:15:41;101629.01;;;17.87;39.36
63281;BME280;49406;51.044;3.766;2023-04-15T12:18:17;101634.20;;;17.80;39.29
63281;BME280;49406;51.044;3.766;2023-04-15T12:20:50;101630.52;;;17.94;40.03
63281;BME280;49406;51.044;3.766;2023-04-15T12:23:23;101642.80;;;17.86;39.75
63281;BME280;49406;51.044;3.766;2023-04-15T12:25:55;101648.13;;;17.85;40.92
63281;BME280;49406;51.044;3.766;2023-04-15T12:28:30;101654.34;;;17.83;41.11
63281;BME280;49406;51.044;3.766;2023-04-15T12:31:07;101660.35;;;17.83;37.71
63281;BME280;49406;51.044;3.766;2023-04-15T12:33:40;101655.52;;;17.66;37.28
63281;BME280;49406;51.044;3.766;2023-04-15T12:36:12;101659.83;;;17.56;39.03
63281;BME280;49406;51.044;3.766;2023-04-15T12:38:45;101659.90;;;17.71;40.43
63281;BME280;49406;51.044;3.766;2023-04-15T12:41:18;101663.10;;;17.71;39.48
63281;BME280;49406;51.044;3.766;2023-04-15T12:43:51;101666.13;;;17.65;39.88
63281;BME280;49406;51.044;3.766;2023-04-15T12:46:23;101665.60;;;17.65;39.54
63281;BME280;49406;51.044;3.766;2023-04-15T12:48:56;101666.29;;;17.66;39.42
63281;BME280;49406;51.044;3.766;2023-04-15T12:51:29;101675.14;;;17.68;39.74
63281;BME280;49406;51.044;3.766;2023-04-15T12:54:02;101679.83;;;17.80;39.74
63281;BME280;49406;51.044;3.766;2023-04-15T12:56:35;101680.33;;;17.83;38.75
63281;BME280;49406;51.044;3.766;2023-04-15T12:59:08;101683.91;;;17.77;39.18
63281;BME280;49406;51.044;3.766;2023-04-15T13:01:40;101686.86;;;17.84;40.22
63281;BME280;49406;51.044;3.766;2023-04-15T13:04:13;101692.27;;;17.91;40.94
63281;BME280;49406;51.044;3.766;2023-04-15T13:06:46;101697.46;;;17.86;41.42
63281;BME280;49406;51.044;3.766;2023-04-15T13:09:18;101700.65;;;17.85;41.86
63281;BME280;49406;51.044;3.766;2023-04-15T13:11:51;101701.83;;;17.92;42.03
63281;BME280;49406;51.044;3.766;2023-04-15T13:14:25;101706.25;;;17.92;41.45
63281;BME280;49406;51.044;3.766;2023-04-15T13:16:58;101713.13;;;17.94;41.38
63281;BME280;49406;51.044;3.766;2023-04-15T13:19:31;101721.71;;;18.05;41.51
63281;BME280;49406;51.044;3.766;2023-04-15T13:22:03;101726.79;;;17.91;41.17
63281;BME280;49406;51.044;3.766;2023-04-15T13:24:37;101728.98;;;17.83;39.99